Time;durP1;ratioP1;P1;durP2;ratioP2;P2;SDS_P1;SDS_P2;PMS_P1;PMS_P2;Temp;Humidity;BMP_temperature;BMP_pressure;BME280_temperature;BME280_humidity;BME280_pressure;Samples;Min_cycle;Max_cycle;Signal;HPM_P1;HPM_P2
2021/05/16 00:01:14;;;;;;;1.42;0.70;;;25.30;43.00;;;;;;5037114;28;20121;-62
2021/05/16 00:03:40;;;;;;;1.35;0.70;;;25.30;43.10;;;;;;5043102;28;20029;-62
2021/05/16 00:06:06;;;;;;;1.20;0.60;;;25.40;43.10;;;;;;5044526;28;20029;-63
2021/05/16 00:08:32;;;;;;;1.13;0.63;;;25.40;43.10;;;;;;5041026;28;20234;-64
2021/05/16 00:10:59;;;;;;;0.80;0.60;;;25.40;43.10;;;;;;5030964;28;20099;-63
2021/05/16 00:13:25;;;;;;;1.40;0.68;;;25.40;43.20;;;;;;5040823;28;20033;-63
2021/05/16 00:15:51;;;;;;;2.65;0.70;;;25.40;43.10;;;;;;5043458;28;20037;-62
2021/05/16 00:18:17;;;;;;;1.15;0.63;;;25.40;43.10;;;;;;5039964;28;20040;-62
2021/05/16 00:20:43;;;;;;;0.90;0.57;;;25.40;43.10;;;;;;5027898;28;20041;-61
2021/05/16 00:23:09;;;;;;;0.80;0.50;;;25.40;43.10;;;;;;5023587;28;20763;-62
2021/05/16 00:25:35;;;;;;;0.85;0.52;;;25.40;43.10;;;;;;5039706;28;20114;-61
2021/05/16 00:28:02;;;;;;;1.65;0.80;;;25.40;43.70;;;;;;5043416;28;20044;-62
2021/05/16 00:30:28;;;;;;;1.02;0.63;;;25.40;43.10;;;;;;5041018;28;20075;-61
2021/05/16 00:32:56;;;;;;;1.02;0.60;;;25.40;43.10;;;;;;5039994;28;20024;-62
2021/05/16 00:35:23;;;;;;;1.90;0.52;;;25.40;43.10;;;;;;5032420;28;20037;-62
2021/05/16 00:37:50;;;;;;;1.58;0.60;;;25.30;43.00;;;;;;5025951;28;20036;-62
2021/05/16 00:40:17;;;;;;;1.80;0.50;;;25.30;43.00;;;;;;5039651;28;20423;-62
2021/05/16 00:42:43;;;;;;;0.80;0.68;;;25.30;43.10;;;;;;5034657;28;20020;-61
2021/05/16 00:45:15;;;;;;;1.08;0.57;;;25.30;43.00;;;;;;5044861;28;20017;-61
2021/05/16 00:47:49;;;;;;;1.02;0.68;;;25.30;43.00;;;;;;5039837;28;20086;-62
2021/05/16 00:50:16;;;;;;;0.68;0.50;;;25.30;43.00;;;;;;5045414;28;20424;-62
2021/05/16 00:52:42;;;;;;;1.55;0.50;;;25.20;43.00;;;;;;5027684;28;20025;-62
2021/05/16 00:55:10;;;;;;;1.02;0.60;;;25.20;43.00;;;;;;5033212;28;20055;-62
2021/05/16 00:57:36;;;;;;;0.90;0.60;;;25.20;43.00;;;;;;5043053;28;20032;-61
2021/05/16 01:00:05;;;;;;;1.73;0.65;;;25.20;43.00;;;;;;5039668;28;20045;-62
2021/05/16 01:02:31;;;;;;;1.38;0.60;;;25.20;43.10;;;;;;5029233;28;20055;-62
2021/05/16 01:04:56;;;;;;;1.42;0.60;;;25.10;42.90;;;;;;5043944;28;20788;-63
2021/05/16 01:07:22;;;;;;;1.40;0.63;;;25.10;43.00;;;;;;5032113;28;20045;-62
2021/05/16 01:09:47;;;;;;;0.85;0.50;;;25.10;43.00;;;;;;5036402;28;20033;-62
2021/05/16 01:12:13;;;;;;;0.93;0.60;;;25.10;43.10;;;;;;5031234;28;20044;-61
2021/05/16 01:14:43;;;;;;;1.20;0.65;;;25.10;43.10;;;;;;5044296;28;20083;-62
2021/05/16 01:17:09;;;;;;;1.77;0.70;;;25.10;43.10;;;;;;5044684;28;20037;-62
2021/05/16 01:19:35;;;;;;;1.13;0.60;;;25.00;43.00;;;;;;5037704;28;20040;-62
2021/05/16 01:22:02;;;;;;;0.98;0.65;;;25.00;43.10;;;;;;5048046;28;20024;-61
2021/05/16 01:24:29;;;;;;;1.20;0.57;;;25.00;43.10;;;;;;5048280;28;20024;-62
2021/05/16 01:26:55;;;;;;;1.55;0.70;;;24.90;43.10;;;;;;5047860;28;22744;-62
2021/05/16 01:29:23;;;;;;;1.65;0.65;;;24.90;43.10;;;;;;5049855;28;20024;-62
2021/05/16 01:31:49;;;;;;;1.08;0.60;;;24.90;43.10;;;;;;5040570;28;20518;-61
2021/05/16 01:34:15;;;;;;;0.85;0.55;;;24.90;43.10;;;;;;5048230;28;20056;-62
2021/05/16 01:36:41;;;;;;;0.95;0.57;;;24.90;43.10;;;;;;5048940;28;20460;-62
2021/05/16 01:39:10;;;;;;;1.38;0.60;;;24.80;43.10;;;;;;5049601;28;20032;-61
2021/05/16 01:41:36;;;;;;;;;;;24.80;43.10;;;;;;5030162;28;20152;-62
2021/05/16 01:44:03;;;;;;;1.30;0.57;;;24.80;43.20;;;;;;5047871;28;19917;-61
2021/05/16 01:46:29;;;;;;;0.73;0.60;;;24.80;43.20;;;;;;5048131;28;20673;-61
2021/05/16 01:48:54;;;;;;;0.47;0.45;;;24.80;43.20;;;;;;5048856;28;20033;-61
2021/05/16 01:51:20;;;;;;;1.92;0.55;;;24.80;43.20;;;;;;5037656;28;20052;-62
2021/05/16 01:53:48;;;;;;;0.98;0.60;;;24.80;43.30;;;;;;5043041;28;20064;-61
2021/05/16 01:56:32;;;;;;;0.85;0.47;;;24.70;43.20;;;;;;5047931;28;20471;-62
2021/05/16 01:58:57;;;;;;;0.55;0.50;;;24.70;43.20;;;;;;5041839;28;20029;-63
2021/05/16 02:01:24;;;;;;;0.93;0.60;;;24.70;43.30;;;;;;5029949;28;20051;-61
2021/05/16 02:03:50;;;;;;;0.80;0.60;;;24.70;43.30;;;;;;5031480;28;20550;-62
2021/05/16 02:06:17;;;;;;;1.52;0.90;;;24.60;43.20;;;;;;5049101;28;20124;-61
2021/05/16 02:08:44;;;;;;;0.77;0.52;;;24.60;43.30;;;;;;5049977;28;20033;-61
2021/05/16 02:11:10;;;;;;;0.60;0.40;;;24.60;43.30;;;;;;5049337;28;20118;-61
2021/05/16 02:13:38;;;;;;;1.08;0.55;;;24.60;43.30;;;;;;5037953;28;20034;-62
2021/05/16 02:16:05;;;;;;;1.75;0.50;;;24.60;43.30;;;;;;5040855;28;20080;-62
2021/05/16 02:18:31;;;;;;;0.75;0.50;;;24.60;43.30;;;;;;5047266;28;20131;-61
2021/05/16 02:20:57;;;;;;;1.40;0.60;;;24.50;43.30;;;;;;5048913;28;20096;-61
2021/05/16 02:23:22;;;;;;;0.50;0.50;;;24.50;43.30;;;;;;5048281;28;20104;-61
2021/05/16 02:25:51;;;;;;;1.58;0.60;;;24.50;43.40;;;;;;5047851;28;20506;-61
2021/05/16 02:28:18;;;;;;;1.65;0.60;;;24.50;43.40;;;;;;5048557;28;20163;-62
2021/05/16 02:30:44;;;;;;;1.52;0.63;;;24.50;43.40;;;;;;5044119;28;20199;-61
2021/05/16 02:33:09;;;;;;;0.93;0.52;;;24.40;43.40;;;;;;5039522;28;20028;-60
2021/05/16 02:35:35;;;;;;;0.80;0.60;;;24.40;43.40;;;;;;5048833;28;20306;-61
2021/05/16 02:38:01;;;;;;;0.73;0.50;;;24.40;43.40;;;;;;5047268;28;20025;-62
2021/05/16 02:40:27;;;;;;;2.20;0.60;;;24.40;43.40;;;;;;5046584;28;20413;-62
2021/05/16 02:42:52;;;;;;;1.15;0.70;;;24.40;43.40;;;;;;5047022;28;20139;-62
2021/05/16 02:45:18;;;;;;;0.50;0.50;;;24.30;43.40;;;;;;5048691;28;20112;-62
2021/05/16 02:47:43;;;;;;;0.60;0.50;;;24.30;43.40;;;;;;5047982;28;20040;-61
2021/05/16 02:50:11;;;;;;;0.90;0.50;;;24.30;43.40;;;;;;5038125;28;20033;-61
2021/05/16 02:52:37;;;;;;;0.85;0.50;;;24.30;43.40;;;;;;5043481;28;20041;-61
2021/05/16 02:55:04;;;;;;;0.40;0.40;;;24.30;43.50;;;;;;5028552;28;20022;-63
2021/05/16 02:57:30;;;;;;;0.65;0.55;;;24.30;43.50;;;;;;5041772;28;20029;-60
2021/05/16 02:59:56;;;;;;;1.50;0.70;;;24.30;43.50;;;;;;5047330;28;20074;-61
2021/05/16 03:02:21;;;;;;;1.10;0.60;;;24.20;43.50;;;;;;5034042;28;20041;-62
2021/05/16 03:04:47;;;;;;;1.27;0.60;;;24.20;43.50;;;;;;5028819;28;20036;-62
2021/05/16 03:07:13;;;;;;;0.93;0.60;;;24.20;43.50;;;;;;5029578;28;20034;-62
2021/05/16 03:09:38;;;;;;;0.65;0.40;;;24.20;43.50;;;;;;5036088;28;20115;-61
2021/05/16 03:12:06;;;;;;;0.47;0.40;;;24.20;43.50;;;;;;5046139;28;20135;-62
2021/05/16 03:14:32;;;;;;;0.82;0.50;;;24.20;43.50;;;;;;5038625;28;20203;-62
2021/05/16 03:16:58;;;;;;;1.27;0.60;;;24.10;43.50;;;;;;5047217;28;20029;-61
2021/05/16 03:19:25;;;;;;;1.08;0.60;;;24.10;43.50;;;;;;5047265;28;20025;-61
2021/05/16 03:21:51;;;;;;;1.00;0.50;;;24.10;43.60;;;;;;5042331;28;20404;-62
2021/05/16 03:24:17;;;;;;;0.75;0.50;;;24.10;43.50;;;;;;5033408;28;20025;-62
2021/05/16 03:26:43;;;;;;;0.88;0.60;;;24.10;43.60;;;;;;5033331;28;20083;-61
2021/05/16 03:29:09;;;;;;;0.40;0.40;;;24.10;43.60;;;;;;5021337;28;20115;-61
2021/05/16 03:31:35;;;;;;;1.00;0.50;;;24.10;43.60;;;;;;5033842;28;20077;-61
2021/05/16 03:34:01;;;;;;;0.80;0.50;;;24.10;43.60;;;;;;5033494;28;20486;-61
2021/05/16 03:36:27;;;;;;;0.47;0.47;;;24.00;43.60;;;;;;5046281;28;20035;-61
2021/05/16 03:38:53;;;;;;;0.30;0.30;;;24.00;43.60;;;;;;5047202;28;20116;-60
2021/05/16 03:41:19;;;;;;;0.52;0.40;;;24.00;43.60;;;;;;5040272;28;20262;-61
2021/05/16 03:43:45;;;;;;;0.63;0.50;;;24.00;43.60;;;;;;5035202;28;20025;-60
2021/05/16 03:46:11;;;;;;;0.88;0.50;;;24.00;43.70;;;;;;5044373;28;20112;-61
2021/05/16 03:48:38;;;;;;;1.02;0.52;;;23.90;43.60;;;;;;5044470;28;20116;-61
2021/05/16 03:51:04;;;;;;;1.10;0.52;;;23.90;43.60;;;;;;5040881;28;20130;-60
2021/05/16 03:53:30;;;;;;;0.70;0.40;;;23.90;43.60;;;;;;5045762;28;20033;-61
2021/05/16 03:55:56;;;;;;;0.50;0.40;;;23.90;43.60;;;;;;5038597;28;20033;-60
2021/05/16 03:58:22;;;;;;;0.60;0.43;;;23.90;43.60;;;;;;5046495;28;20036;-61
2021/05/16 04:00:48;;;;;;;0.85;0.50;;;23.90;43.60;;;;;;5037992;28;20063;-62
2021/05/16 04:03:14;;;;;;;0.60;0.40;;;23.90;43.70;;;;;;5043193;28;20110;-62
2021/05/16 04:05:40;;;;;;;0.60;0.50;;;23.90;43.70;;;;;;5028152;28;20341;-61
2021/05/16 04:08:05;;;;;;;0.57;0.50;;;23.80;43.70;;;;;;5038057;28;20702;-60
2021/05/16 04:10:31;;;;;;;0.90;0.60;;;23.90;43.70;;;;;;5040646;28;20036;-61
2021/05/16 04:12:57;;;;;;;0.43;0.40;;;23.90;43.70;;;;;;5025835;28;20163;-62
2021/05/16 04:15:22;;;;;;;0.60;0.47;;;23.90;43.70;;;;;;5043133;28;20186;-61
2021/05/16 04:17:48;;;;;;;0.50;0.50;;;23.80;43.70;;;;;;5044377;28;20648;-61
2021/05/16 04:20:14;;;;;;;0.40;0.40;;;23.80;43.70;;;;;;5044190;28;20021;-61
2021/05/16 04:22:40;;;;;;;0.85;0.50;;;23.80;43.80;;;;;;5043046;28;20021;-61
2021/05/16 04:25:06;;;;;;;0.70;0.50;;;23.80;43.80;;;;;;5037706;28;20025;-60
2021/05/16 04:27:31;;;;;;;0.40;0.40;;;23.70;43.70;;;;;;5042736;28;20139;-61
2021/05/16 04:29:57;;;;;;;0.30;0.30;;;23.70;43.70;;;;;;5040717;28;20055;-62
2021/05/16 04:32:22;;;;;;;0.55;0.43;;;23.70;43.80;;;;;;5035750;28;20427;-61
2021/05/16 04:34:49;;;;;;;0.57;0.50;;;23.70;44.30;;;;;;5045176;28;20025;-62
2021/05/16 04:37:14;;;;;;;0.85;0.55;;;23.70;43.80;;;;;;5039941;28;20037;-62
2021/05/16 04:39:40;;;;;;;0.55;0.50;;;23.70;43.80;;;;;;5043110;28;20025;-61
2021/05/16 04:42:06;;;;;;;0.90;0.40;;;23.70;43.80;;;;;;5031803;28;20133;-61
2021/05/16 04:44:32;;;;;;;0.70;0.50;;;23.70;43.80;;;;;;5037446;28;20079;-62
2021/05/16 04:46:57;;;;;;;0.60;0.50;;;23.70;44.40;;;;;;5042233;28;20542;-61
2021/05/16 04:49:23;;;;;;;0.57;0.50;;;23.70;43.80;;;;;;5034933;28;20033;-61
2021/05/16 04:51:49;;;;;;;0.70;0.57;;;23.60;43.80;;;;;;5025671;28;20707;-61
2021/05/16 04:54:14;;;;;;;1.60;0.52;;;23.60;43.80;;;;;;5045685;28;20053;-62
2021/05/16 04:56:40;;;;;;;0.65;0.50;;;23.60;43.90;;;;;;5048878;28;20490;-61
2021/05/16 04:59:06;;;;;;;0.40;0.40;;;23.60;43.90;;;;;;5055016;28;20036;-61
2021/05/16 05:01:32;;;;;;;0.57;0.50;;;23.60;43.90;;;;;;5046403;28;20122;-62
2021/05/16 05:03:58;;;;;;;1.05;0.47;;;23.60;43.90;;;;;;5029607;28;20037;-61
2021/05/16 05:06:24;;;;;;;0.70;0.50;;;23.60;43.90;;;;;;5050373;28;20110;-62
2021/05/16 05:08:50;;;;;;;0.35;0.35;;;23.60;44.00;;;;;;5048639;28;20578;-63
2021/05/16 05:11:15;;;;;;;0.50;0.43;;;23.60;43.90;;;;;;5032784;28;20109;-62
2021/05/16 05:13:41;;;;;;;0.90;0.60;;;23.60;43.90;;;;;;5028786;28;20106;-62
2021/05/16 05:16:07;;;;;;;0.40;0.40;;;23.50;43.90;;;;;;5047381;28;20124;-63
2021/05/16 05:18:33;;;;;;;0.45;0.40;;;23.50;44.50;;;;;;5047414;28;20029;-63
2021/05/16 05:20:59;;;;;;;0.43;0.30;;;23.50;43.90;;;;;;5049328;28;20053;-62
2021/05/16 05:23:27;;;;;;;0.80;0.40;;;23.50;43.90;;;;;;5049210;28;20041;-62
2021/05/16 05:25:54;;;;;;;0.52;0.45;;;23.50;44.00;;;;;;5042118;28;20035;-62
2021/05/16 05:28:20;;;;;;;0.50;0.40;;;23.50;44.00;;;;;;5038168;28;20365;-61
2021/05/16 05:30:46;;;;;;;1.10;0.65;;;23.50;44.00;;;;;;5034616;28;20040;-62
2021/05/16 05:33:11;;;;;;;0.60;0.50;;;23.50;44.50;;;;;;5036078;28;20036;-63
2021/05/16 05:35:37;;;;;;;0.57;0.47;;;23.40;44.00;;;;;;5037367;28;20028;-61
2021/05/16 05:38:02;;;;;;;1.00;0.52;;;23.40;44.00;;;;;;5044314;28;20448;-61
2021/05/16 05:40:28;;;;;;;0.82;0.50;;;23.40;44.00;;;;;;5043084;28;20079;-61
2021/05/16 05:42:54;;;;;;;0.75;0.32;;;23.40;44.00;;;;;;5034841;28;20215;-60
2021/05/16 05:45:19;;;;;;;0.50;0.50;;;23.40;44.00;;;;;;5048417;28;20028;-61
2021/05/16 05:47:45;;;;;;;0.65;0.50;;;23.40;44.00;;;;;;5035642;28;20128;-60
2021/05/16 05:50:11;;;;;;;0.50;0.50;;;23.40;44.00;;;;;;5031049;28;20056;-61
2021/05/16 05:52:37;;;;;;;0.57;0.40;;;23.40;44.00;;;;;;5037956;28;20029;-62
2021/05/16 05:55:03;;;;;;;0.50;0.40;;;23.40;44.00;;;;;;5039220;28;20030;-61
2021/05/16 05:57:29;;;;;;;0.60;0.40;;;23.30;44.00;;;;;;5048659;28;20464;-60
2021/05/16 05:59:55;;;;;;;0.43;0.40;;;23.40;44.10;;;;;;5042631;28;20026;-60
2021/05/16 06:02:20;;;;;;;0.50;0.50;;;23.30;44.10;;;;;;5043537;28;20460;-62
2021/05/16 06:04:46;;;;;;;0.60;0.40;;;23.30;44.10;;;;;;5033880;28;20033;-61
2021/05/16 06:07:12;;;;;;;0.50;0.43;;;23.30;44.10;;;;;;5046876;28;20060;-61
2021/05/16 06:09:38;;;;;;;0.40;0.40;;;23.30;44.10;;;;;;5029537;28;20027;-59
2021/05/16 06:12:05;;;;;;;0.40;0.40;;;23.30;44.10;;;;;;5028922;28;20433;-60
2021/05/16 06:14:32;;;;;;;0.88;0.50;;;23.30;44.10;;;;;;5044862;28;20812;-60
2021/05/16 06:16:58;;;;;;;0.40;0.40;;;23.30;44.10;;;;;;5046273;28;20036;-60
2021/05/16 06:19:23;;;;;;;0.47;0.43;;;23.30;44.10;;;;;;5046375;28;20520;-59
2021/05/16 06:21:49;;;;;;;0.30;0.30;;;23.30;44.20;;;;;;5042609;28;20033;-59
2021/05/16 06:24:14;;;;;;;0.40;0.40;;;23.30;44.10;;;;;;5034891;28;20065;-60
2021/05/16 06:26:42;;;;;;;1.13;0.43;;;23.30;44.20;;;;;;5035512;28;20030;-59
2021/05/16 06:29:09;;;;;;;0.40;0.40;;;23.30;44.20;;;;;;5042764;28;20049;-59
2021/05/16 06:31:36;;;;;;;0.55;0.40;;;23.30;44.20;;;;;;5029729;28;20049;-60
2021/05/16 06:34:01;;;;;;;0.47;0.47;;;23.30;44.20;;;;;;5028250;28;20029;-60
2021/05/16 06:36:27;;;;;;;0.40;0.40;;;23.30;44.20;;;;;;5047142;28;20033;-61
2021/05/16 06:38:54;;;;;;;0.60;0.43;;;23.20;44.10;;;;;;5037403;28;20810;-59
2021/05/16 06:41:21;;;;;;;0.40;0.40;;;23.20;44.10;;;;;;5042402;28;20036;-59
2021/05/16 06:43:47;;;;;;;0.40;0.40;;;23.20;44.10;;;;;;5032091;28;20049;-61
2021/05/16 06:46:13;;;;;;;0.55;0.40;;;23.20;44.20;;;;;;5036344;28;20021;-60
2021/05/16 06:48:39;;;;;;;0.35;0.30;;;23.20;44.20;;;;;;5018875;28;609541;-59
2021/05/16 06:51:05;;;;;;;0.22;0.22;;;23.20;44.20;;;;;;5042331;28;20033;-61
2021/05/16 06:53:32;;;;;;;0.30;0.30;;;23.20;44.10;;;;;;5045948;28;20191;-59
2021/05/16 06:55:58;;;;;;;0.55;0.40;;;23.20;44.20;;;;;;5047539;28;20040;-59
2021/05/16 06:58:24;;;;;;;0.55;0.40;;;23.20;44.20;;;;;;5045916;28;20033;-61
2021/05/16 07:00:49;;;;;;;0.70;0.43;;;23.20;44.20;;;;;;5040764;28;20136;-60
2021/05/16 07:03:15;;;;;;;0.65;0.40;;;23.20;44.20;;;;;;5046583;28;20448;-59
2021/05/16 07:05:41;;;;;;;0.45;0.43;;;23.20;44.70;;;;;;5047053;28;20075;-60
2021/05/16 07:08:07;;;;;;;1.05;0.32;;;23.20;44.20;;;;;;5039104;28;20122;-59
2021/05/16 07:10:32;;;;;;;1.13;0.47;;;23.10;44.10;;;;;;5042562;28;20064;-60
2021/05/16 07:12:59;;;;;;;0.47;0.30;;;23.10;44.10;;;;;;5042485;28;20143;-60
2021/05/16 07:15:25;;;;;;;0.35;0.30;;;23.10;44.10;;;;;;5027713;28;20033;-61
2021/05/16 07:17:51;;;;;;;0.40;0.35;;;23.10;44.70;;;;;;5043354;28;20333;-61
2021/05/16 07:20:16;;;;;;;0.40;0.40;;;23.10;44.20;;;;;;5044106;28;20033;-59
2021/05/16 07:22:42;;;;;;;0.47;0.40;;;23.10;44.20;;;;;;5035775;28;20041;-60
2021/05/16 07:25:09;;;;;;;0.45;0.40;;;23.10;44.20;;;;;;5029740;28;20121;-60
2021/05/16 07:27:35;;;;;;;0.70;0.40;;;23.10;44.70;;;;;;5043004;28;20029;-59
2021/05/16 07:30:00;;;;;;;0.75;0.40;;;23.10;44.20;;;;;;5041084;28;20025;-59
2021/05/16 07:32:26;;;;;;;0.88;0.47;;;23.10;44.20;;;;;;5027387;28;20045;-61
2021/05/16 07:34:51;;;;;;;0.55;0.40;;;23.10;44.20;;;;;;5045662;28;20029;-60
2021/05/16 07:37:17;;;;;;;0.30;0.30;;;23.10;44.20;;;;;;5034349;28;20113;-59
2021/05/16 07:39:42;;;;;;;0.40;0.40;;;23.10;44.70;;;;;;5044170;28;20094;-59
2021/05/16 07:42:08;;;;;;;0.30;0.30;;;23.10;44.20;;;;;;5040411;28;20044;-61
2021/05/16 07:44:34;;;;;;;0.60;0.40;;;23.10;44.20;;;;;;5045743;28;20060;-60
2021/05/16 07:47:00;;;;;;;0.38;0.38;;;23.10;44.30;;;;;;5030187;28;20117;-59
2021/05/16 07:49:25;;;;;;;0.47;0.35;;;23.10;44.30;;;;;;5045155;28;20021;-60
2021/05/16 07:51:51;;;;;;;1.08;0.52;;;23.10;44.20;;;;;;5030071;28;20029;-61
2021/05/16 07:54:16;;;;;;;0.47;0.40;;;23.10;44.30;;;;;;5028988;28;20734;-59
2021/05/16 07:56:43;;;;;;;1.05;0.52;;;23.10;44.30;;;;;;5026373;28;20025;-60
2021/05/16 07:59:08;;;;;;;0.57;0.40;;;23.10;44.30;;;;;;5033962;28;20044;-61
2021/05/16 08:01:34;;;;;;;0.38;0.32;;;23.10;44.30;;;;;;5027608;28;20053;-59
2021/05/16 08:04:00;;;;;;;0.60;0.47;;;23.10;44.30;;;;;;5038201;28;20035;-60
2021/05/16 08:06:25;;;;;;;0.63;0.40;;;23.10;44.90;;;;;;5045931;28;20139;-60
2021/05/16 08:08:51;;;;;;;0.55;0.40;;;23.10;44.40;;;;;;5037484;28;20033;-60
2021/05/16 08:11:17;;;;;;;0.38;0.35;;;23.00;44.30;;;;;;5031170;28;20070;-59
2021/05/16 08:13:42;;;;;;;0.55;0.40;;;23.00;44.30;;;;;;5028955;28;20138;-60
2021/05/16 08:16:08;;;;;;;0.50;0.40;;;23.10;44.40;;;;;;5033468;28;20445;-61
2021/05/16 08:18:34;;;;;;;0.40;0.38;;;23.10;44.40;;;;;;5029115;28;20032;-62
2021/05/16 08:20:59;;;;;;;0.47;0.30;;;23.00;44.40;;;;;;5042233;28;20070;-60
2021/05/16 08:23:25;;;;;;;0.70;0.40;;;23.10;44.50;;;;;;5043752;28;20407;-60
2021/05/16 08:25:51;;;;;;;0.95;0.38;;;23.00;44.40;;;;;;5042412;28;20028;-60
2021/05/16 08:28:17;;;;;;;0.65;0.45;;;23.10;44.40;;;;;;5035630;28;20033;-60
2021/05/16 08:30:43;;;;;;;0.45;0.40;;;23.10;44.50;;;;;;5049975;28;20044;-60
2021/05/16 08:33:09;;;;;;;0.43;0.40;;;23.10;44.50;;;;;;5063512;28;20051;-60
2021/05/16 08:35:35;;;;;;;0.63;0.40;;;23.00;44.40;;;;;;5055387;28;20041;-60
2021/05/16 08:38:02;;;;;;;0.70;0.40;;;23.10;44.40;;;;;;5029369;28;20098;-61
2021/05/16 08:40:28;;;;;;;0.30;0.30;;;23.00;44.40;;;;;;5047906;28;20127;-60
2021/05/16 08:42:53;;;;;;;0.57;0.40;;;23.10;44.40;;;;;;5036958;28;20044;-60
2021/05/16 08:45:19;;;;;;;0.98;0.50;;;23.10;44.40;;;;;;5027443;28;20029;-60
2021/05/16 08:47:46;;;;;;;0.45;0.30;;;23.10;44.50;;;;;;5037278;28;20108;-59
2021/05/16 08:50:15;;;;;;;0.45;0.38;;;23.10;44.50;;;;;;5041171;28;20106;-60
2021/05/16 08:52:40;;;;;;;1.45;0.43;;;23.00;44.40;;;;;;5029129;28;20440;-61
2021/05/16 08:55:08;;;;;;;0.70;0.50;;;23.10;44.50;;;;;;5041961;28;20044;-61
2021/05/16 08:57:34;;;;;;;0.57;0.45;;;23.00;44.50;;;;;;5032776;28;20089;-60
2021/05/16 09:00:07;;;;;;;1.00;0.30;;;23.10;44.50;;;;;;5041015;28;20131;-60
2021/05/16 09:02:33;;;;;;;0.40;0.40;;;23.10;44.60;;;;;;5040902;28;20123;-61
2021/05/16 09:04:59;;;;;;;1.50;0.63;;;23.10;44.50;;;;;;5041577;28;20510;-59
2021/05/16 09:07:29;;;;;;;0.63;0.40;;;23.10;44.50;;;;;;5038175;28;20111;-59
2021/05/16 09:09:54;;;;;;;0.40;0.30;;;23.10;44.50;;;;;;5040368;28;20059;-61
2021/05/16 09:12:22;;;;;;;0.80;0.40;;;23.10;44.60;;;;;;5036534;28;20460;-60
2021/05/16 09:14:49;;;;;;;0.82;0.50;;;23.10;44.50;;;;;;5041500;28;20131;-60
2021/05/16 09:17:20;;;;;;;0.40;0.40;;;23.10;44.60;;;;;;5037500;28;20087;-60
2021/05/16 09:19:51;;;;;;;1.63;0.50;;;23.00;44.50;;;;;;5038662;28;20036;-61
2021/05/16 09:22:35;;;;;;;0.85;0.50;;;23.10;44.50;;;;;;5032777;28;20095;-60
2021/05/16 09:25:16;;;;;;;1.35;0.50;;;23.00;44.50;;;;;;5040560;28;20127;-61
2021/05/16 09:27:47;;;;;;;0.63;0.40;;;23.10;44.50;;;;;;5039622;28;20044;-62
2021/05/16 09:30:16;;;;;;;1.38;0.40;;;23.10;44.50;;;;;;5039897;28;20043;-60
2021/05/16 09:32:54;;;;;;;0.73;0.50;;;23.10;44.50;;;;;;5035695;28;20052;-60
2021/05/16 09:35:33;;;;;;;1.40;0.50;;;23.10;44.50;;;;;;5030612;28;20113;-60
2021/05/16 09:38:01;;;;;;;1.17;0.43;;;23.10;44.50;;;;;;5042223;28;20037;-59
2021/05/16 09:40:30;;;;;;;0.73;0.40;;;23.10;44.50;;;;;;5039752;28;20049;-59
2021/05/16 09:43:06;;;;;;;;;;;23.10;44.40;;;;;;5046910;28;20021;-60
2021/05/16 09:46:04;;;;;;;0.40;0.40;;;23.10;44.50;;;;;;5042521;28;19917;-61
2021/05/16 09:48:33;;;;;;;2.25;0.40;;;23.10;44.50;;;;;;5044132;28;20037;-60
2021/05/16 09:51:12;;;;;;;0.98;0.50;;;23.10;44.50;;;;;;5034312;28;20117;-62
2021/05/16 09:54:08;;;;;;;0.43;0.40;;;23.10;44.50;;;;;;5036326;28;20040;-59
2021/05/16 09:56:39;;;;;;;0.47;0.40;;;23.10;44.60;;;;;;5046287;28;20029;-60
2021/05/16 09:59:10;;;;;;;0.93;0.50;;;23.10;44.60;;;;;;5045824;28;20032;-62
2021/05/16 10:01:37;;;;;;;0.65;0.40;;;23.10;44.60;;;;;;5037158;28;20144;-60
2021/05/16 10:04:04;;;;;;;1.13;0.50;;;23.10;44.60;;;;;;5045862;28;20024;-62
2021/05/16 10:06:30;;;;;;;0.68;0.43;;;23.10;44.70;;;;;;5043617;28;20127;-61
2021/05/16 10:08:57;;;;;;;1.52;0.57;;;23.10;44.60;;;;;;5046476;28;20052;-61
2021/05/16 10:11:25;;;;;;;0.90;0.40;;;23.10;44.60;;;;;;5044595;28;20123;-63
2021/05/16 10:14:04;;;;;;;1.45;0.40;;;23.10;44.70;;;;;;5027763;28;20043;-60
2021/05/16 10:16:37;;;;;;;1.48;0.60;;;23.10;44.70;;;;;;5046147;28;20391;-62
2021/05/16 10:19:04;;;;;;;1.35;0.40;;;23.10;44.70;;;;;;5044063;28;20040;-61
2021/05/16 10:21:29;;;;;;;0.73;0.40;;;23.10;44.70;;;;;;5041197;28;20106;-59
2021/05/16 10:24:15;;;;;;;1.08;0.60;;;23.10;44.70;;;;;;5043228;28;20079;-62
2021/05/16 10:26:42;;;;;;;0.47;0.40;;;23.10;44.70;;;;;;5048726;28;20124;-62
2021/05/16 10:29:15;;;;;;;0.93;0.60;;;23.10;44.60;;;;;;5044757;28;20029;-61
2021/05/16 10:31:53;;;;;;;0.70;0.40;;;23.10;44.60;;;;;;5045300;28;20037;-61
2021/05/16 10:34:27;;;;;;;2.22;0.57;;;23.10;44.70;;;;;;5040744;28;20033;-59
2021/05/16 10:37:01;;;;;;;2.35;0.50;;;23.10;44.60;;;;;;5038376;28;20560;-63
2021/05/16 10:39:38;;;;;;;2.03;0.50;;;23.10;44.60;;;;;;5033687;28;20029;-59
2021/05/16 10:42:18;;;;;;;1.60;0.75;;;23.10;44.70;;;;;;5033628;28;20036;-60
2021/05/16 10:44:58;;;;;;;1.27;0.60;;;23.10;44.70;;;;;;5034688;28;20025;-59
2021/05/16 10:47:42;;;;;;;1.33;0.52;;;23.10;44.70;;;;;;5029184;28;20033;-55
2021/05/16 10:50:23;;;;;;;1.27;0.50;;;23.10;45.20;;;;;;5041397;28;20039;-61
2021/05/16 10:53:00;;;;;;;0.85;0.47;;;23.20;44.70;;;;;;5045159;28;20441;-59
2021/05/16 10:55:27;;;;;;;1.63;0.90;;;23.10;44.70;;;;;;5045466;28;20029;-60
2021/05/16 10:57:53;;;;;;;2.78;1.10;;;23.20;44.70;;;;;;5045402;28;20196;-61
2021/05/16 11:00:22;;;;;;;1.88;1.00;;;23.10;44.60;;;;;;5037194;28;20104;-62
2021/05/16 11:03:07;;;;;;;5.13;1.77;;;23.10;44.60;;;;;;5028062;28;20128;-60
2021/05/16 11:08:11;;;;;;;3.65;1.77;;;23.20;44.70;;;;;;5037642;28;20414;-61
2021/05/16 11:10:38;;;;;;;4.72;2.10;;;23.20;44.70;;;;;;5046577;28;20368;-60
2021/05/16 11:13:13;;;;;;;5.03;2.63;;;23.20;44.70;;;;;;5039273;28;20041;-60
2021/05/16 11:15:48;;;;;;;5.82;2.80;;;23.20;44.70;;;;;;5046171;28;20032;-61
2021/05/16 11:18:17;;;;;;;4.97;2.80;;;23.20;44.70;;;;;;5035687;28;20071;-60
2021/05/16 11:20:44;;;;;;;5.97;2.75;;;23.20;44.60;;;;;;5043187;28;20499;-59
2021/05/16 11:23:33;;;;;;;7.78;3.40;;;23.20;44.70;;;;;;5045738;28;20111;-57
2021/05/16 11:26:03;;;;;;;;;;;23.20;44.60;;;;;;5030478;28;20033;-60
2021/05/16 11:28:33;;;;;;;7.60;3.50;;;23.20;44.60;;;;;;5045703;28;20299;-61
2021/05/16 11:30:59;;;;;;;6.20;3.55;;;23.20;44.60;;;;;;5043872;28;20056;-62
2021/05/16 11:33:30;;;;;;;6.70;3.80;;;23.20;44.60;;;;;;5044277;28;20041;-61
2021/05/16 11:35:56;;;;;;;6.57;3.72;;;23.20;44.60;;;;;;5033018;28;20041;-64
2021/05/16 11:38:30;;;;;;;6.68;3.90;;;23.20;44.60;;;;;;5035577;28;20044;-64
2021/05/16 11:40:56;;;;;;;7.82;4.10;;;23.20;44.60;;;;;;5045550;28;20017;-62
2021/05/16 11:43:35;;;;;;;7.47;4.20;;;23.20;44.60;;;;;;5044947;28;20368;-62
2021/05/16 11:46:02;;;;;;;7.55;4.28;;;23.20;44.60;;;;;;5043497;28;20040;-61
2021/05/16 11:48:36;;;;;;;7.72;4.30;;;23.20;44.60;;;;;;5044087;28;20036;-62
2021/05/16 11:51:10;;;;;;;7.55;3.90;;;23.30;44.60;;;;;;5042319;28;20029;-61
2021/05/16 11:53:41;;;;;;;7.18;4.13;;;23.20;44.50;;;;;;5033442;28;20116;-61
2021/05/16 11:56:17;;;;;;;6.13;3.63;;;23.30;44.50;;;;;;5039942;28;20391;-61
2021/05/16 11:58:57;;;;;;;7.00;3.88;;;23.30;44.50;;;;;;5041257;28;20025;-61
2021/05/16 12:01:25;;;;;;;7.47;3.92;;;23.30;44.40;;;;;;5039925;28;20461;-61
2021/05/16 12:03:51;;;;;;;6.35;3.70;;;23.30;44.50;;;;;;5026130;28;20075;-63
2021/05/16 12:06:17;;;;;;;7.65;3.97;;;23.30;44.40;;;;;;5038347;28;20021;-61
2021/05/16 12:08:43;;;;;;;7.15;3.50;;;23.30;44.40;;;;;;5040549;28;20033;-62
2021/05/16 12:11:15;;;;;;;5.80;3.47;;;23.30;44.20;;;;;;5037259;28;20104;-62
2021/05/16 12:13:41;;;;;;;7.57;3.70;;;23.30;44.20;;;;;;5044815;28;20112;-61
2021/05/16 12:16:23;;;;;;;6.55;3.55;;;23.30;44.20;;;;;;5039325;28;20040;-61
2021/05/16 12:18:53;;;;;;;6.38;3.45;;;23.30;44.20;;;;;;5043187;28;20036;-61
2021/05/16 12:21:19;;;;;;;5.78;3.58;;;23.30;44.80;;;;;;5038740;28;20021;-61
2021/05/16 12:24:00;;;;;;;5.93;3.30;;;23.30;44.30;;;;;;5043048;28;20439;-61
2021/05/16 12:26:28;;;;;;;6.53;3.38;;;23.30;44.20;;;;;;5043914;28;20021;-61
2021/05/16 12:28:55;;;;;;;5.75;3.50;;;23.30;44.30;;;;;;5029271;28;20053;-61
2021/05/16 12:31:21;;;;;;;5.90;3.00;;;23.30;44.30;;;;;;5039140;28;20536;-63
2021/05/16 12:33:48;;;;;;;5.57;3.05;;;23.30;44.30;;;;;;5044799;28;20036;-61
2021/05/16 12:36:14;;;;;;;6.18;3.50;;;23.30;44.30;;;;;;5044984;28;20051;-62
2021/05/16 12:38:51;;;;;;;7.05;3.65;;;23.30;44.40;;;;;;5044247;28;20838;-62
2021/05/16 12:41:25;;;;;;;6.22;3.40;;;23.30;44.30;;;;;;5039778;28;20033;-62
2021/05/16 12:44:12;;;;;;;6.20;3.47;;;23.30;44.40;;;;;;5030479;28;20036;-61
2021/05/16 12:46:40;;;;;;;6.07;3.50;;;23.30;44.40;;;;;;5040402;28;20036;-62
2021/05/16 12:49:06;;;;;;;5.32;3.17;;;23.30;44.40;;;;;;5041854;28;20048;-60
2021/05/16 12:51:33;;;;;;;6.57;3.53;;;23.30;44.40;;;;;;5036363;28;20025;-61
2021/05/16 12:54:23;;;;;;;6.38;3.20;;;23.30;44.40;;;;;;5039199;28;20132;-62